sensor_id;sensor_type;location;lat;lon;timestamp;P1;durP1;ratioP1;P2;durP2;ratioP2
11671;SDS011;5892;43.412;24.612;2023-09-19T00:02:04;6.07;;;5.10;;
11671;SDS011;5892;43.412;24.612;2023-09-19T00:04:34;10.30;;;5.50;;
11671;SDS011;5892;43.412;24.612;2023-09-19T00:07:04;5.57;;;5.00;;
11671;SDS011;5892;43.412;24.612;2023-09-19T00:09:31;8.27;;;6.00;;
11671;SDS011;5892;43.412;24.612;2023-09-19T00:12:03;8.17;;;6.10;;
11671;SDS011;5892;43.412;24.612;2023-09-19T00:14:30;6.97;;;6.20;;
11671;SDS011;5892;43.412;24.612;2023-09-19T00:16:59;8.67;;;6.30;;
11671;SDS011;5892;43.412;24.612;2023-09-19T00:19:31;10.20;;;6.50;;
11671;SDS011;5892;43.412;24.612;2023-09-19T00:21:59;9.77;;;6.27;;
11671;SDS011;5892;43.412;24.612;2023-09-19T00:24:26;8.63;;;6.53;;
11671;SDS011;5892;43.412;24.612;2023-09-19T00:26:54;10.37;;;6.53;;
11671;SDS011;5892;43.412;24.612;2023-09-19T00:29:21;7.27;;;6.30;;
11671;SDS011;5892;43.412;24.612;2023-09-19T00:31:48;8.17;;;6.23;;
11671;SDS011;5892;43.412;24.612;2023-09-19T00:34:16;9.30;;;5.97;;
11671;SDS011;5892;43.412;24.612;2023-09-19T00:36:43;6.87;;;6.17;;
11671;SDS011;5892;43.412;24.612;2023-09-19T00:39:11;8.80;;;6.30;;
11671;SDS011;5892;43.412;24.612;2023-09-19T00:41:38;7.27;;;6.17;;
11671;SDS011;5892;43.412;24.612;2023-09-19T00:44:06;9.53;;;6.47;;
11671;SDS011;5892;43.412;24.612;2023-09-19T00:46:34;7.13;;;6.10;;
11671;SDS011;5892;43.412;24.612;2023-09-19T00:49:02;9.60;;;6.23;;
11671;SDS011;5892;43.412;24.612;2023-09-19T00:51:29;7.07;;;6.37;;
11671;SDS011;5892;43.412;24.612;2023-09-19T00:53:56;9.20;;;5.50;;
11671;SDS011;5892;43.412;24.612;2023-09-19T00:56:25;7.27;;;5.90;;
11671;SDS011;5892;43.412;24.612;2023-09-19T00:58:52;6.80;;;6.07;;
11671;SDS011;5892;43.412;24.612;2023-09-19T01:01:19;7.77;;;5.90;;
11671;SDS011;5892;43.412;24.612;2023-09-19T01:03:47;8.10;;;6.30;;
11671;SDS011;5892;43.412;24.612;2023-09-19T01:06:15;10.00;;;6.60;;
11671;SDS011;5892;43.412;24.612;2023-09-19T01:08:42;7.13;;;5.87;;
11671;SDS011;5892;43.412;24.612;2023-09-19T01:11:11;6.87;;;5.63;;
11671;SDS011;5892;43.412;24.612;2023-09-19T01:13:53;6.80;;;5.30;;
11671;SDS011;5892;43.412;24.612;2023-09-19T01:16:28;7.47;;;5.90;;
11671;SDS011;5892;43.412;24.612;2023-09-19T01:19:07;8.13;;;5.90;;
11671;SDS011;5892;43.412;24.612;2023-09-19T01:22:00;7.67;;;5.57;;
11671;SDS011;5892;43.412;24.612;2023-09-19T01:27:53;6.60;;;5.70;;
11671;SDS011;5892;43.412;24.612;2023-09-19T01:30:35;7.87;;;5.33;;
11671;SDS011;5892;43.412;24.612;2023-09-19T01:33:05;5.93;;;5.37;;
11671;SDS011;5892;43.412;24.612;2023-09-19T01:35:33;7.43;;;5.67;;
11671;SDS011;5892;43.412;24.612;2023-09-19T01:38:04;7.27;;;5.67;;
11671;SDS011;5892;43.412;24.612;2023-09-19T01:40:32;7.53;;;5.80;;
11671;SDS011;5892;43.412;24.612;2023-09-19T01:43:07;7.37;;;5.80;;
11671;SDS011;5892;43.412;24.612;2023-09-19T01:45:43;7.27;;;5.90;;
11671;SDS011;5892;43.412;24.612;2023-09-19T01:48:19;6.40;;;5.60;;
11671;SDS011;5892;43.412;24.612;2023-09-19T01:50:53;6.93;;;5.80;;
11671;SDS011;5892;43.412;24.612;2023-09-19T01:53:26;6.80;;;5.90;;
11671;SDS011;5892;43.412;24.612;2023-09-19T01:55:56;8.80;;;6.20;;
11671;SDS011;5892;43.412;24.612;2023-09-19T01:58:26;7.60;;;6.07;;
11671;SDS011;5892;43.412;24.612;2023-09-19T02:01:01;8.07;;;5.93;;
11671;SDS011;5892;43.412;24.612;2023-09-19T02:03:31;7.47;;;5.87;;
11671;SDS011;5892;43.412;24.612;2023-09-19T02:05:59;8.00;;;5.90;;
11671;SDS011;5892;43.412;24.612;2023-09-19T02:08:28;6.10;;;5.43;;
11671;SDS011;5892;43.412;24.612;2023-09-19T02:10:58;6.40;;;5.50;;
11671;SDS011;5892;43.412;24.612;2023-09-19T02:13:25;6.07;;;5.40;;
11671;SDS011;5892;43.412;24.612;2023-09-19T02:15:53;6.20;;;5.60;;
11671;SDS011;5892;43.412;24.612;2023-09-19T02:18:22;6.07;;;5.43;;
11671;SDS011;5892;43.412;24.612;2023-09-19T02:20:49;6.80;;;5.90;;
11671;SDS011;5892;43.412;24.612;2023-09-19T02:23:18;9.37;;;6.33;;
11671;SDS011;5892;43.412;24.612;2023-09-19T02:25:51;7.20;;;6.33;;
11671;SDS011;5892;43.412;24.612;2023-09-19T02:28:18;9.30;;;6.63;;
11671;SDS011;5892;43.412;24.612;2023-09-19T02:30:47;9.13;;;6.10;;
11671;SDS011;5892;43.412;24.612;2023-09-19T02:33:15;7.83;;;6.07;;
11671;SDS011;5892;43.412;24.612;2023-09-19T02:35:44;8.77;;;6.23;;
11671;SDS011;5892;43.412;24.612;2023-09-19T02:38:13;7.47;;;6.10;;
11671;SDS011;5892;43.412;24.612;2023-09-19T02:40:43;11.57;;;6.93;;
11671;SDS011;5892;43.412;24.612;2023-09-19T02:43:10;7.87;;;6.27;;
11671;SDS011;5892;43.412;24.612;2023-09-19T02:45:37;9.77;;;6.13;;
11671;SDS011;5892;43.412;24.612;2023-09-19T02:48:04;6.50;;;5.90;;
11671;SDS011;5892;43.412;24.612;2023-09-19T02:50:32;11.13;;;6.67;;
11671;SDS011;5892;43.412;24.612;2023-09-19T02:53:01;7.47;;;6.50;;
11671;SDS011;5892;43.412;24.612;2023-09-19T02:55:29;7.77;;;6.23;;
11671;SDS011;5892;43.412;24.612;2023-09-19T02:57:57;6.77;;;6.00;;
11671;SDS011;5892;43.412;24.612;2023-09-19T03:00:24;9.13;;;6.27;;
11671;SDS011;5892;43.412;24.612;2023-09-19T03:02:53;9.57;;;6.03;;
11671;SDS011;5892;43.412;24.612;2023-09-19T03:05:21;8.53;;;6.30;;
11671;SDS011;5892;43.412;24.612;2023-09-19T03:07:50;7.40;;;5.77;;
11671;SDS011;5892;43.412;24.612;2023-09-19T03:10:18;7.50;;;5.90;;
11671;SDS011;5892;43.412;24.612;2023-09-19T03:12:46;7.07;;;5.63;;
11671;SDS011;5892;43.412;24.612;2023-09-19T03:15:14;6.40;;;5.80;;
11671;SDS011;5892;43.412;24.612;2023-09-19T03:17:42;11.33;;;6.00;;
11671;SDS011;5892;43.412;24.612;2023-09-19T03:20:10;7.40;;;6.33;;
11671;SDS011;5892;43.412;24.612;2023-09-19T03:22:39;8.47;;;5.60;;
11671;SDS011;5892;43.412;24.612;2023-09-19T03:25:06;6.53;;;5.77;;
11671;SDS011;5892;43.412;24.612;2023-09-19T03:27:36;6.93;;;5.33;;
11671;SDS011;5892;43.412;24.612;2023-09-19T03:30:04;6.87;;;5.93;;
11671;SDS011;5892;43.412;24.612;2023-09-19T03:32:33;6.33;;;5.67;;
11671;SDS011;5892;43.412;24.612;2023-09-19T03:35:01;7.20;;;6.10;;
11671;SDS011;5892;43.412;24.612;2023-09-19T03:37:30;6.47;;;5.60;;
11671;SDS011;5892;43.412;24.612;2023-09-19T03:39:58;7.97;;;5.80;;
11671;SDS011;5892;43.412;24.612;2023-09-19T03:42:29;7.80;;;6.00;;
11671;SDS011;5892;43.412;24.612;2023-09-19T03:44:58;7.13;;;6.10;;
11671;SDS011;5892;43.412;24.612;2023-09-19T03:47:30;9.33;;;5.90;;
11671;SDS011;5892;43.412;24.612;2023-09-19T03:49:58;8.53;;;5.80;;
11671;SDS011;5892;43.412;24.612;2023-09-19T03:52:25;9.70;;;6.23;;
11671;SDS011;5892;43.412;24.612;2023-09-19T03:54:52;6.97;;;5.70;;
11671;SDS011;5892;43.412;24.612;2023-09-19T03:57:18;6.70;;;5.97;;
11671;SDS011;5892;43.412;24.612;2023-09-19T03:59:46;6.93;;;6.20;;
11671;SDS011;5892;43.412;24.612;2023-09-19T04:02:14;8.63;;;6.10;;
11671;SDS011;5892;43.412;24.612;2023-09-19T04:04:47;6.30;;;5.70;;
11671;SDS011;5892;43.412;24.612;2023-09-19T04:07:14;11.00;;;5.83;;
11671;SDS011;5892;43.412;24.612;2023-09-19T04:09:41;7.90;;;6.03;;
11671;SDS011;5892;43.412;24.612;2023-09-19T04:12:07;7.30;;;5.87;;
11671;SDS011;5892;43.412;24.612;2023-09-19T04:14:34;7.63;;;6.03;;
11671;SDS011;5892;43.412;24.612;2023-09-19T04:17:01;11.00;;;6.13;;
11671;SDS011;5892;43.412;24.612;2023-09-19T04:19:30;9.90;;;6.00;;
11671;SDS011;5892;43.412;24.612;2023-09-19T04:21:56;11.27;;;5.93;;
11671;SDS011;5892;43.412;24.612;2023-09-19T04:24:23;11.90;;;6.53;;
11671;SDS011;5892;43.412;24.612;2023-09-19T04:26:50;8.27;;;5.90;;
11671;SDS011;5892;43.412;24.612;2023-09-19T04:29:17;8.70;;;6.20;;
11671;SDS011;5892;43.412;24.612;2023-09-19T04:31:45;7.23;;;5.87;;
11671;SDS011;5892;43.412;24.612;2023-09-19T04:34:12;6.83;;;5.93;;
11671;SDS011;5892;43.412;24.612;2023-09-19T04:36:42;8.53;;;5.57;;
11671;SDS011;5892;43.412;24.612;2023-09-19T04:39:10;8.70;;;5.50;;
11671;SDS011;5892;43.412;24.612;2023-09-19T04:41:38;12.77;;;5.63;;
11671;SDS011;5892;43.412;24.612;2023-09-19T04:44:06;8.87;;;5.40;;
11671;SDS011;5892;43.412;24.612;2023-09-19T04:46:33;7.70;;;5.73;;
11671;SDS011;5892;43.412;24.612;2023-09-19T04:49:00;8.60;;;5.67;;
11671;SDS011;5892;43.412;24.612;2023-09-19T04:51:27;7.97;;;6.10;;
11671;SDS011;5892;43.412;24.612;2023-09-19T04:54:00;10.00;;;6.07;;
11671;SDS011;5892;43.412;24.612;2023-09-19T04:56:27;7.13;;;6.20;;
11671;SDS011;5892;43.412;24.612;2023-09-19T04:58:56;9.60;;;5.73;;
11671;SDS011;5892;43.412;24.612;2023-09-19T05:01:23;10.17;;;6.17;;
11671;SDS011;5892;43.412;24.612;2023-09-19T05:03:50;11.97;;;6.23;;
11671;SDS011;5892;43.412;24.612;2023-09-19T05:06:18;8.70;;;5.70;;
11671;SDS011;5892;43.412;24.612;2023-09-19T05:08:46;13.17;;;5.90;;
11671;SDS011;5892;43.412;24.612;2023-09-19T05:11:18;7.63;;;5.80;;
11671;SDS011;5892;43.412;24.612;2023-09-19T05:13:46;6.57;;;5.30;;
11671;SDS011;5892;43.412;24.612;2023-09-19T05:16:15;10.27;;;5.73;;
11671;SDS011;5892;43.412;24.612;2023-09-19T05:18:43;6.70;;;4.77;;
11671;SDS011;5892;43.412;24.612;2023-09-19T05:21:10;10.33;;;5.07;;
11671;SDS011;5892;43.412;24.612;2023-09-19T05:23:37;8.97;;;5.13;;
11671;SDS011;5892;43.412;24.612;2023-09-19T05:26:04;8.87;;;4.93;;
11671;SDS011;5892;43.412;24.612;2023-09-19T05:28:32;9.37;;;5.40;;
11671;SDS011;5892;43.412;24.612;2023-09-19T05:31:00;5.63;;;5.10;;
11671;SDS011;5892;43.412;24.612;2023-09-19T05:33:27;6.07;;;5.13;;
11671;SDS011;5892;43.412;24.612;2023-09-19T05:35:56;9.30;;;5.17;;
11671;SDS011;5892;43.412;24.612;2023-09-19T05:38:23;10.70;;;5.67;;
11671;SDS011;5892;43.412;24.612;2023-09-19T05:40:52;6.33;;;5.10;;
11671;SDS011;5892;43.412;24.612;2023-09-19T05:43:19;6.87;;;5.00;;
11671;SDS011;5892;43.412;24.612;2023-09-19T05:45:47;7.43;;;4.90;;
11671;SDS011;5892;43.412;24.612;2023-09-19T05:48:17;5.53;;;4.73;;
11671;SDS011;5892;43.412;24.612;2023-09-19T05:50:46;6.73;;;4.37;;
11671;SDS011;5892;43.412;24.612;2023-09-19T05:53:14;6.77;;;5.00;;
11671;SDS011;5892;43.412;24.612;2023-09-19T05:55:41;6.97;;;4.57;;
11671;SDS011;5892;43.412;24.612;2023-09-19T05:58:08;7.10;;;5.00;;
11671;SDS011;5892;43.412;24.612;2023-09-19T06:00:35;7.73;;;4.63;;
11671;SDS011;5892;43.412;24.612;2023-09-19T06:03:03;10.57;;;4.80;;
11671;SDS011;5892;43.412;24.612;2023-09-19T06:05:30;9.57;;;6.43;;
11671;SDS011;5892;43.412;24.612;2023-09-19T06:07:57;15.03;;;7.73;;
11671;SDS011;5892;43.412;24.612;2023-09-19T06:10:25;17.83;;;7.90;;
11671;SDS011;5892;43.412;24.612;2023-09-19T06:12:53;21.50;;;8.10;;
11671;SDS011;5892;43.412;24.612;2023-09-19T06:15:20;17.97;;;8.77;;
11671;SDS011;5892;43.412;24.612;2023-09-19T06:17:48;23.30;;;8.70;;
11671;SDS011;5892;43.412;24.612;2023-09-19T06:20:17;19.60;;;8.40;;
11671;SDS011;5892;43.412;24.612;2023-09-19T06:22:45;18.17;;;8.40;;
11671;SDS011;5892;43.412;24.612;2023-09-19T06:25:12;19.77;;;8.40;;
11671;SDS011;5892;43.412;24.612;2023-09-19T06:27:44;16.90;;;8.10;;
11671;SDS011;5892;43.412;24.612;2023-09-19T06:30:11;15.03;;;7.90;;
11671;SDS011;5892;43.412;24.612;2023-09-19T06:32:39;11.57;;;8.03;;
11671;SDS011;5892;43.412;24.612;2023-09-19T06:35:09;15.03;;;7.60;;
11671;SDS011;5892;43.412;24.612;2023-09-19T06:37:37;15.17;;;8.40;;
11671;SDS011;5892;43.412;24.612;2023-09-19T06:40:06;17.90;;;8.70;;
11671;SDS011;5892;43.412;24.612;2023-09-19T06:42:38;16.37;;;7.93;;
11671;SDS011;5892;43.412;24.612;2023-09-19T06:45:07;13.27;;;7.60;;
11671;SDS011;5892;43.412;24.612;2023-09-19T06:47:36;16.10;;;7.90;;
11671;SDS011;5892;43.412;24.612;2023-09-19T06:50:04;10.67;;;7.73;;
11671;SDS011;5892;43.412;24.612;2023-09-19T06:52:39;12.40;;;7.67;;
11671;SDS011;5892;43.412;24.612;2023-09-19T06:55:07;11.27;;;9.43;;
11671;SDS011;5892;43.412;24.612;2023-09-19T06:57:37;14.47;;;10.20;;
11671;SDS011;5892;43.412;24.612;2023-09-19T07:00:06;11.83;;;9.77;;
11671;SDS011;5892;43.412;24.612;2023-09-19T07:02:37;15.20;;;9.60;;
11671;SDS011;5892;43.412;24.612;2023-09-19T07:05:06;13.07;;;7.57;;
11671;SDS011;5892;43.412;24.612;2023-09-19T07:07:33;8.07;;;6.77;;
11671;SDS011;5892;43.412;24.612;2023-09-19T07:10:01;12.63;;;8.43;;
11671;SDS011;5892;43.412;24.612;2023-09-19T07:12:28;11.27;;;8.10;;
11671;SDS011;5892;43.412;24.612;2023-09-19T07:14:55;14.57;;;7.70;;
11671;SDS011;5892;43.412;24.612;2023-09-19T07:17:22;10.80;;;8.73;;
11671;SDS011;5892;43.412;24.612;2023-09-19T07:19:49;13.30;;;8.87;;
11671;SDS011;5892;43.412;24.612;2023-09-19T07:22:16;17.33;;;9.70;;
11671;SDS011;5892;43.412;24.612;2023-09-19T07:24:43;11.83;;;7.57;;
11671;SDS011;5892;43.412;24.612;2023-09-19T07:27:11;15.27;;;8.27;;
11671;SDS011;5892;43.412;24.612;2023-09-19T07:29:38;13.40;;;7.23;;
11671;SDS011;5892;43.412;24.612;2023-09-19T07:32:05;21.40;;;6.40;;
11671;SDS011;5892;43.412;24.612;2023-09-19T07:34:33;10.17;;;5.70;;
11671;SDS011;5892;43.412;24.612;2023-09-19T07:37:00;4.77;;;4.27;;
11671;SDS011;5892;43.412;24.612;2023-09-19T07:39:27;11.37;;;4.70;;
11671;SDS011;5892;43.412;24.612;2023-09-19T07:41:54;8.20;;;4.60;;
11671;SDS011;5892;43.412;24.612;2023-09-19T07:44:23;9.40;;;4.60;;
11671;SDS011;5892;43.412;24.612;2023-09-19T07:46:50;11.77;;;5.03;;
11671;SDS011;5892;43.412;24.612;2023-09-19T07:49:18;7.40;;;4.87;;
11671;SDS011;5892;43.412;24.612;2023-09-19T07:51:45;11.77;;;4.70;;
11671;SDS011;5892;43.412;24.612;2023-09-19T07:54:12;11.50;;;4.47;;
11671;SDS011;5892;43.412;24.612;2023-09-19T07:56:39;10.20;;;4.50;;
11671;SDS011;5892;43.412;24.612;2023-09-19T07:59:06;11.63;;;4.60;;
11671;SDS011;5892;43.412;24.612;2023-09-19T08:01:36;8.67;;;4.80;;
11671;SDS011;5892;43.412;24.612;2023-09-19T08:04:06;8.03;;;4.57;;
11671;SDS011;5892;43.412;24.612;2023-09-19T08:06:34;7.03;;;4.30;;
11671;SDS011;5892;43.412;24.612;2023-09-19T08:09:00;7.53;;;4.70;;
11671;SDS011;5892;43.412;24.612;2023-09-19T08:11:32;11.93;;;4.60;;
11671;SDS011;5892;43.412;24.612;2023-09-19T08:14:11;6.23;;;4.60;;
11671;SDS011;5892;43.412;24.612;2023-09-19T08:16:39;10.23;;;4.13;;
11671;SDS011;5892;43.412;24.612;2023-09-19T08:19:08;7.53;;;4.50;;
11671;SDS011;5892;43.412;24.612;2023-09-19T08:21:36;5.00;;;3.83;;
11671;SDS011;5892;43.412;24.612;2023-09-19T08:24:03;9.83;;;4.43;;
11671;SDS011;5892;43.412;24.612;2023-09-19T08:26:31;8.77;;;4.30;;
11671;SDS011;5892;43.412;24.612;2023-09-19T08:28:57;5.80;;;4.37;;
11671;SDS011;5892;43.412;24.612;2023-09-19T08:31:31;6.70;;;4.37;;
11671;SDS011;5892;43.412;24.612;2023-09-19T08:33:58;6.97;;;4.20;;
11671;SDS011;5892;43.412;24.612;2023-09-19T08:36:25;10.63;;;5.20;;
11671;SDS011;5892;43.412;24.612;2023-09-19T08:38:52;10.67;;;4.83;;
11671;SDS011;5892;43.412;24.612;2023-09-19T08:41:19;6.93;;;4.80;;
11671;SDS011;5892;43.412;24.612;2023-09-19T08:43:46;11.57;;;5.10;;
11671;SDS011;5892;43.412;24.612;2023-09-19T08:46:15;8.27;;;5.20;;
11671;SDS011;5892;43.412;24.612;2023-09-19T08:48:46;10.23;;;4.67;;
11671;SDS011;5892;43.412;24.612;2023-09-19T08:51:21;8.87;;;4.50;;
11671;SDS011;5892;43.412;24.612;2023-09-19T08:53:58;7.20;;;4.37;;
11671;SDS011;5892;43.412;24.612;2023-09-19T08:56:30;5.53;;;4.00;;
11671;SDS011;5892;43.412;24.612;2023-09-19T08:58:59;11.67;;;4.80;;
11671;SDS011;5892;43.412;24.612;2023-09-19T09:01:29;6.60;;;4.50;;
11671;SDS011;5892;43.412;24.612;2023-09-19T09:03:58;9.53;;;4.60;;
11671;SDS011;5892;43.412;24.612;2023-09-19T09:06:27;6.70;;;3.80;;
11671;SDS011;5892;43.412;24.612;2023-09-19T09:08:57;8.50;;;4.07;;
11671;SDS011;5892;43.412;24.612;2023-09-19T09:11:25;5.23;;;3.80;;
11671;SDS011;5892;43.412;24.612;2023-09-19T09:13:53;7.37;;;3.77;;
11671;SDS011;5892;43.412;24.612;2023-09-19T09:16:20;6.70;;;3.80;;
11671;SDS011;5892;43.412;24.612;2023-09-19T09:18:51;7.47;;;3.67;;
11671;SDS011;5892;43.412;24.612;2023-09-19T09:21:21;8.47;;;3.83;;
11671;SDS011;5892;43.412;24.612;2023-09-19T09:23:48;7.00;;;3.73;;
11671;SDS011;5892;43.412;24.612;2023-09-19T09:26:16;8.63;;;4.53;;
11671;SDS011;5892;43.412;24.612;2023-09-19T09:28:44;7.33;;;4.00;;
11671;SDS011;5892;43.412;24.612;2023-09-19T09:31:21;6.23;;;3.80;;
11671;SDS011;5892;43.412;24.612;2023-09-19T09:33:52;6.93;;;4.30;;
11671;SDS011;5892;43.412;24.612;2023-09-19T09:36:34;9.57;;;4.23;;
11671;SDS011;5892;43.412;24.612;2023-09-19T09:39:02;8.30;;;4.50;;
11671;SDS011;5892;43.412;24.612;2023-09-19T09:41:42;8.93;;;4.30;;
11671;SDS011;5892;43.412;24.612;2023-09-19T09:44:23;8.37;;;4.20;;
11671;SDS011;5892;43.412;24.612;2023-09-19T09:46:52;6.93;;;4.27;;
11671;SDS011;5892;43.412;24.612;2023-09-19T09:49:47;8.67;;;4.33;;
11671;SDS011;5892;43.412;24.612;2023-09-19T09:52:20;7.23;;;3.70;;
11671;SDS011;5892;43.412;24.612;2023-09-19T09:54:58;7.63;;;3.93;;
11671;SDS011;5892;43.412;24.612;2023-09-19T09:57:26;8.03;;;3.80;;
11671;SDS011;5892;43.412;24.612;2023-09-19T09:59:55;5.00;;;3.80;;
11671;SDS011;5892;43.412;24.612;2023-09-19T10:02:25;10.63;;;3.50;;
11671;SDS011;5892;43.412;24.612;2023-09-19T10:04:58;8.10;;;3.50;;
11671;SDS011;5892;43.412;24.612;2023-09-19T10:07:36;10.20;;;3.53;;
11671;SDS011;5892;43.412;24.612;2023-09-19T10:10:06;5.77;;;3.53;;
11671;SDS011;5892;43.412;24.612;2023-09-19T10:12:44;6.47;;;3.83;;
11671;SDS011;5892;43.412;24.612;2023-09-19T10:15:13;8.13;;;3.50;;
11671;SDS011;5892;43.412;24.612;2023-09-19T10:17:42;6.30;;;3.60;;
11671;SDS011;5892;43.412;24.612;2023-09-19T10:20:14;5.13;;;3.60;;
11671;SDS011;5892;43.412;24.612;2023-09-19T10:23:00;6.97;;;3.33;;
11671;SDS011;5892;43.412;24.612;2023-09-19T10:25:36;6.03;;;3.20;;
11671;SDS011;5892;43.412;24.612;2023-09-19T10:28:05;8.70;;;3.40;;
11671;SDS011;5892;43.412;24.612;2023-09-19T10:30:36;6.00;;;3.70;;
11671;SDS011;5892;43.412;24.612;2023-09-19T10:33:10;6.57;;;3.10;;
11671;SDS011;5892;43.412;24.612;2023-09-19T10:35:37;6.57;;;3.33;;
11671;SDS011;5892;43.412;24.612;2023-09-19T10:38:09;5.00;;;3.10;;
11671;SDS011;5892;43.412;24.612;2023-09-19T10:40:37;8.40;;;3.40;;
11671;SDS011;5892;43.412;24.612;2023-09-19T10:43:11;8.07;;;3.30;;
11671;SDS011;5892;43.412;24.612;2023-09-19T10:45:40;11.77;;;3.20;;
11671;SDS011;5892;43.412;24.612;2023-09-19T10:48:10;5.13;;;3.20;;
11671;SDS011;5892;43.412;24.612;2023-09-19T10:50:41;5.17;;;3.30;;
11671;SDS011;5892;43.412;24.612;2023-09-19T10:53:12;6.47;;;3.20;;
11671;SDS011;5892;43.412;24.612;2023-09-19T10:55:41;9.33;;;3.80;;
11671;SDS011;5892;43.412;24.612;2023-09-19T10:58:24;10.57;;;3.67;;
11671;SDS011;5892;43.412;24.612;2023-09-19T11:00:54;6.90;;;3.30;;
11671;SDS011;5892;43.412;24.612;2023-09-19T11:03:22;5.93;;;3.50;;
11671;SDS011;5892;43.412;24.612;2023-09-19T11:06:11;5.70;;;3.23;;
11671;SDS011;5892;43.412;24.612;2023-09-19T11:08:52;7.53;;;3.23;;
11671;SDS011;5892;43.412;24.612;2023-09-19T11:11:45;6.27;;;3.63;;
11671;SDS011;5892;43.412;24.612;2023-09-19T11:14:28;4.00;;;3.30;;
11671;SDS011;5892;43.412;24.612;2023-09-19T11:23:17;14.17;;;3.67;;
11671;SDS011;5892;43.412;24.612;2023-09-19T11:25:49;6.17;;;3.40;;
11671;SDS011;5892;43.412;24.612;2023-09-19T11:28:28;7.30;;;3.30;;
11671;SDS011;5892;43.412;24.612;2023-09-19T11:30:58;5.57;;;3.90;;
11671;SDS011;5892;43.412;24.612;2023-09-19T11:33:46;5.80;;;3.40;;
11671;SDS011;5892;43.412;24.612;2023-09-19T11:36:15;6.83;;;3.97;;
11671;SDS011;5892;43.412;24.612;2023-09-19T11:39:00;8.00;;;3.70;;
11671;SDS011;5892;43.412;24.612;2023-09-19T11:41:41;6.30;;;3.50;;
11671;SDS011;5892;43.412;24.612;2023-09-19T11:47:03;6.33;;;3.80;;
11671;SDS011;5892;43.412;24.612;2023-09-19T11:49:32;5.43;;;3.67;;
11671;SDS011;5892;43.412;24.612;2023-09-19T11:52:00;6.80;;;3.13;;
11671;SDS011;5892;43.412;24.612;2023-09-19T11:54:30;2.97;;;2.70;;
11671;SDS011;5892;43.412;24.612;2023-09-19T11:57:00;6.23;;;3.13;;
11671;SDS011;5892;43.412;24.612;2023-09-19T11:59:28;5.73;;;3.30;;
11671;SDS011;5892;43.412;24.612;2023-09-19T12:01:56;6.67;;;3.37;;
11671;SDS011;5892;43.412;24.612;2023-09-19T12:04:34;5.07;;;3.17;;
11671;SDS011;5892;43.412;24.612;2023-09-19T12:07:03;7.57;;;3.50;;
11671;SDS011;5892;43.412;24.612;2023-09-19T12:09:31;9.40;;;3.27;;
11671;SDS011;5892;43.412;24.612;2023-09-19T12:11:59;5.97;;;3.00;;
11671;SDS011;5892;43.412;24.612;2023-09-19T12:14:26;5.30;;;3.50;;
11671;SDS011;5892;43.412;24.612;2023-09-19T12:16:54;3.90;;;3.30;;
11671;SDS011;5892;43.412;24.612;2023-09-19T12:19:21;4.03;;;3.50;;
11671;SDS011;5892;43.412;24.612;2023-09-19T12:21:58;4.40;;;3.53;;
11671;SDS011;5892;43.412;24.612;2023-09-19T12:24:29;3.63;;;3.30;;
11671;SDS011;5892;43.412;24.612;2023-09-19T12:27:00;5.17;;;3.33;;
11671;SDS011;5892;43.412;24.612;2023-09-19T12:29:31;7.67;;;3.20;;
11671;SDS011;5892;43.412;24.612;2023-09-19T12:31:59;5.17;;;3.30;;
11671;SDS011;5892;43.412;24.612;2023-09-19T12:34:29;3.70;;;3.30;;
11671;SDS011;5892;43.412;24.612;2023-09-19T12:37:03;3.77;;;3.17;;
11671;SDS011;5892;43.412;24.612;2023-09-19T12:39:36;4.60;;;3.37;;
11671;SDS011;5892;43.412;24.612;2023-09-19T12:42:05;4.43;;;3.43;;
11671;SDS011;5892;43.412;24.612;2023-09-19T12:44:34;4.33;;;3.10;;
11671;SDS011;5892;43.412;24.612;2023-09-19T12:47:08;7.60;;;3.40;;
11671;SDS011;5892;43.412;24.612;2023-09-19T12:49:35;4.67;;;3.53;;
11671;SDS011;5892;43.412;24.612;2023-09-19T12:52:02;4.63;;;3.60;;
11671;SDS011;5892;43.412;24.612;2023-09-19T12:54:37;5.40;;;3.47;;
11671;SDS011;5892;43.412;24.612;2023-09-19T12:57:06;8.80;;;3.37;;
11671;SDS011;5892;43.412;24.612;2023-09-19T12:59:33;3.63;;;2.97;;
11671;SDS011;5892;43.412;24.612;2023-09-19T13:02:04;4.10;;;3.37;;
11671;SDS011;5892;43.412;24.612;2023-09-19T13:04:39;4.17;;;3.13;;
11671;SDS011;5892;43.412;24.612;2023-09-19T13:07:08;4.70;;;3.20;;
11671;SDS011;5892;43.412;24.612;2023-09-19T13:10:11;6.47;;;3.10;;
11671;SDS011;5892;43.412;24.612;2023-09-19T13:12:42;3.47;;;2.90;;
11671;SDS011;5892;43.412;24.612;2023-09-19T13:15:12;4.83;;;3.10;;
11671;SDS011;5892;43.412;24.612;2023-09-19T13:17:45;4.40;;;3.00;;
11671;SDS011;5892;43.412;24.612;2023-09-19T13:20:23;6.03;;;3.30;;
11671;SDS011;5892;43.412;24.612;2023-09-19T13:22:53;4.77;;;3.20;;
11671;SDS011;5892;43.412;24.612;2023-09-19T13:25:25;3.30;;;3.00;;
11671;SDS011;5892;43.412;24.612;2023-09-19T13:27:56;3.50;;;3.10;;
11671;SDS011;5892;43.412;24.612;2023-09-19T13:30:25;4.30;;;3.00;;
11671;SDS011;5892;43.412;24.612;2023-09-19T13:33:04;5.07;;;3.30;;
11671;SDS011;5892;43.412;24.612;2023-09-19T13:35:31;5.03;;;3.47;;
11671;SDS011;5892;43.412;24.612;2023-09-19T13:37:59;5.07;;;3.30;;
11671;SDS011;5892;43.412;24.612;2023-09-19T13:40:26;4.63;;;3.30;;
11671;SDS011;5892;43.412;24.612;2023-09-19T13:42:57;3.20;;;2.90;;
11671;SDS011;5892;43.412;24.612;2023-09-19T13:45:24;4.80;;;3.40;;
11671;SDS011;5892;43.412;24.612;2023-09-19T13:47:52;5.80;;;3.43;;
11671;SDS011;5892;43.412;24.612;2023-09-19T13:50:19;4.00;;;3.30;;
11671;SDS011;5892;43.412;24.612;2023-09-19T13:52:49;5.57;;;2.93;;
11671;SDS011;5892;43.412;24.612;2023-09-19T13:55:16;5.67;;;3.33;;
11671;SDS011;5892;43.412;24.612;2023-09-19T13:57:45;6.30;;;3.20;;
11671;SDS011;5892;43.412;24.612;2023-09-19T14:00:14;5.93;;;3.37;;
11671;SDS011;5892;43.412;24.612;2023-09-19T14:02:41;4.27;;;3.20;;
11671;SDS011;5892;43.412;24.612;2023-09-19T14:05:09;4.70;;;3.13;;
11671;SDS011;5892;43.412;24.612;2023-09-19T14:07:37;6.40;;;2.87;;
11671;SDS011;5892;43.412;24.612;2023-09-19T14:10:06;7.67;;;2.90;;
11671;SDS011;5892;43.412;24.612;2023-09-19T14:12:33;6.63;;;2.93;;
11671;SDS011;5892;43.412;24.612;2023-09-19T14:15:00;3.00;;;2.70;;
11671;SDS011;5892;43.412;24.612;2023-09-19T14:17:29;2.97;;;2.63;;
11671;SDS011;5892;43.412;24.612;2023-09-19T14:19:55;5.73;;;2.70;;
11671;SDS011;5892;43.412;24.612;2023-09-19T14:22:22;4.17;;;2.40;;
11671;SDS011;5892;43.412;24.612;2023-09-19T14:24:49;2.77;;;2.53;;
11671;SDS011;5892;43.412;24.612;2023-09-19T14:27:17;3.43;;;2.47;;
11671;SDS011;5892;43.412;24.612;2023-09-19T14:29:43;5.50;;;2.30;;
11671;SDS011;5892;43.412;24.612;2023-09-19T14:32:10;3.23;;;2.50;;
11671;SDS011;5892;43.412;24.612;2023-09-19T14:34:39;6.60;;;2.60;;
11671;SDS011;5892;43.412;24.612;2023-09-19T14:37:08;8.83;;;2.97;;
11671;SDS011;5892;43.412;24.612;2023-09-19T14:39:36;7.77;;;2.87;;
11671;SDS011;5892;43.412;24.612;2023-09-19T14:42:04;8.73;;;2.80;;
11671;SDS011;5892;43.412;24.612;2023-09-19T14:44:30;5.57;;;2.70;;
11671;SDS011;5892;43.412;24.612;2023-09-19T14:46:57;6.63;;;2.83;;
11671;SDS011;5892;43.412;24.612;2023-09-19T14:49:25;5.93;;;2.50;;
11671;SDS011;5892;43.412;24.612;2023-09-19T14:51:53;3.07;;;2.30;;
11671;SDS011;5892;43.412;24.612;2023-09-19T14:54:20;3.23;;;2.50;;
11671;SDS011;5892;43.412;24.612;2023-09-19T14:56:49;4.13;;;2.43;;
11671;SDS011;5892;43.412;24.612;2023-09-19T14:59:29;4.93;;;2.30;;
11671;SDS011;5892;43.412;24.612;2023-09-19T15:01:56;3.63;;;2.40;;
11671;SDS011;5892;43.412;24.612;2023-09-19T15:04:23;3.90;;;2.40;;
11671;SDS011;5892;43.412;24.612;2023-09-19T15:06:50;3.10;;;2.60;;
11671;SDS011;5892;43.412;24.612;2023-09-19T15:09:21;5.13;;;2.40;;
11671;SDS011;5892;43.412;24.612;2023-09-19T15:11:51;4.07;;;2.30;;
11671;SDS011;5892;43.412;24.612;2023-09-19T15:14:18;4.30;;;2.43;;